createdAt,value
2023-02-04T00:04:31.303Z,4.5
2023-02-04T00:07:04.570Z,4.1
2023-02-04T00:12:05.082Z,3.8
2023-02-04T00:17:05.670Z,4.1
2023-02-04T00:22:06.212Z,3.4
2023-02-04T00:27:06.705Z,3.9
2023-02-04T00:32:07.391Z,3.4
2023-02-04T00:37:07.761Z,3.6
2023-02-04T00:42:08.478Z,3.7
2023-02-04T00:47:08.953Z,4.1
2023-02-04T00:52:09.623Z,3.9
2023-02-04T00:57:10.080Z,4.0
2023-02-04T01:02:10.811Z,3.2
2023-02-04T01:07:11.330Z,3.1
2023-02-04T01:12:11.888Z,3.5
2023-02-04T01:17:12.353Z,3.5
2023-02-04T01:22:12.960Z,3.2
2023-02-04T01:27:13.666Z,3.8
2023-02-04T01:32:14.035Z,3.6
2023-02-04T01:37:14.653Z,2.8
2023-02-04T01:42:15.215Z,2.5
2023-02-04T01:47:15.810Z,3.0
2023-02-04T01:52:16.370Z,3.3
2023-02-04T01:57:16.923Z,3.1
2023-02-04T02:02:17.532Z,2.7
2023-02-04T02:07:17.973Z,3.4
2023-02-04T02:12:18.617Z,2.6
2023-02-04T02:17:19.073Z,2.4
2023-02-04T02:22:19.668Z,2.6
2023-02-04T02:27:20.182Z,2.2
2023-02-04T02:32:20.730Z,2.2
2023-02-04T02:37:21.224Z,2.5
2023-02-04T02:42:21.835Z,2.2
2023-02-04T02:47:22.371Z,2.3
2023-02-04T02:52:22.879Z,2.4
2023-02-04T02:57:23.496Z,2.3
2023-02-04T03:02:24.045Z,1.9
2023-02-04T03:07:24.545Z,2.2
2023-02-04T03:12:25.082Z,1.7
2023-02-04T03:17:25.620Z,2.8
2023-02-04T03:22:26.046Z,2.0
2023-02-04T03:27:26.776Z,2.2
2023-02-04T03:32:27.192Z,1.9
2023-02-04T03:37:27.741Z,2.1
2023-02-04T03:42:28.667Z,1.6
2023-02-04T03:47:28.812Z,2.4
2023-02-04T03:52:29.376Z,2.8
2023-02-04T03:57:29.935Z,2.0
2023-02-04T04:02:30.467Z,2.8
2023-02-04T04:07:30.942Z,2.6
2023-02-04T04:12:31.601Z,2.4
2023-02-04T04:17:31.954Z,2.2
2023-02-04T04:22:32.513Z,1.4
2023-02-04T04:27:33.063Z,1.7
2023-02-04T04:32:33.610Z,1.2
2023-02-04T04:37:34.078Z,1.3
2023-02-04T04:42:35.016Z,1.5
2023-02-04T04:47:35.189Z,1.3
2023-02-04T04:52:35.718Z,1.3
2023-02-04T04:57:36.440Z,1.4
2023-02-04T05:02:36.814Z,1.2
2023-02-04T05:07:37.448Z,1.2
2023-02-04T05:12:38.076Z,1.1
2023-02-04T05:17:38.610Z,0.9
2023-02-04T05:22:39.129Z,1.2
2023-02-04T05:27:39.980Z,1.5
2023-02-04T05:32:40.418Z,0.7
2023-02-04T05:37:40.852Z,0.7
2023-02-04T05:42:41.559Z,0.8
2023-02-04T05:47:42.020Z,1.0
2023-02-04T05:52:42.590Z,0.7
2023-02-04T05:57:43.141Z,0.9
2023-02-04T06:02:43.667Z,0.9
2023-02-04T06:07:44.169Z,0.6
2023-02-04T06:12:44.847Z,0.9
2023-02-04T06:17:45.366Z,0.8
2023-02-04T06:22:45.801Z,1.2
2023-02-04T06:27:46.545Z,0.8
2023-02-04T06:32:46.943Z,0.9
2023-02-04T06:37:47.534Z,0.9
2023-02-04T06:42:48.187Z,0.7
2023-02-04T06:47:48.673Z,0.9
2023-02-04T06:52:49.150Z,0.9
2023-02-04T06:57:49.813Z,0.8
2023-02-04T07:02:50.314Z,0.9
2023-02-04T07:07:50.794Z,0.8
2023-02-04T07:12:51.453Z,1.0
2023-02-04T07:17:51.809Z,0.7
2023-02-04T07:22:52.431Z,1.0
2023-02-04T07:27:52.992Z,0.7
2023-02-04T07:32:53.568Z,0.7
2023-02-04T07:37:54.073Z,0.9
2023-02-04T07:42:54.949Z,1.0
2023-02-04T07:47:55.128Z,0.8
2023-02-04T07:52:55.750Z,1.1
2023-02-04T07:57:56.276Z,1.3
2023-02-04T08:02:56.834Z,1.3
2023-02-04T08:07:57.283Z,1.6
2023-02-04T08:12:57.873Z,1.5
2023-02-04T08:17:58.441Z,1.7
2023-02-04T08:22:58.806Z,1.4
2023-02-04T08:27:59.527Z,1.1
2023-02-04T08:32:59.885Z,0.9
2023-02-04T08:38:00.467Z,1.3
2023-02-04T08:43:01.119Z,1.7
2023-02-04T08:48:01.502Z,1.5
2023-02-04T08:53:01.938Z,1.7
2023-02-04T08:58:02.648Z,1.1
2023-02-04T09:03:03.050Z,0.9
2023-02-04T09:08:03.647Z,0.9
2023-02-04T09:13:04.184Z,0.8
2023-02-04T09:18:04.971Z,0.9
2023-02-04T09:23:05.260Z,0.7
2023-02-04T09:28:05.924Z,0.7
2023-02-04T09:33:06.364Z,0.7
2023-02-04T09:38:06.867Z,0.7
2023-02-04T09:43:07.829Z,0.9
2023-02-04T09:48:10.032Z,0.7
2023-02-04T09:53:08.565Z,0.8
2023-02-04T09:58:08.956Z,0.6
2023-02-04T10:03:09.468Z,0.7
2023-02-04T10:08:09.927Z,0.4
2023-02-04T10:13:10.564Z,0.3
2023-02-04T10:18:10.960Z,0.4
2023-02-04T10:23:12.787Z,0.4
2023-02-04T10:28:12.243Z,0.4
2023-02-04T10:33:12.586Z,0.6
2023-02-04T10:38:13.167Z,0.3
2023-02-04T10:43:13.880Z,0.5
2023-02-04T10:48:14.315Z,0.6
2023-02-04T10:53:14.733Z,0.6
2023-02-04T10:58:15.403Z,0.4
2023-02-04T11:03:15.821Z,0.5
2023-02-04T11:08:16.317Z,0.7
2023-02-04T11:13:16.781Z,0.9
2023-02-04T11:18:17.315Z,0.9
2023-02-04T11:23:17.700Z,0.7
2023-02-04T11:28:18.385Z,0.6
2023-02-04T11:33:18.673Z,0.6
2023-02-04T11:38:19.172Z,0.8
2023-02-04T11:43:21.705Z,0.5
2023-02-04T11:48:20.131Z,0.9
2023-02-04T11:53:20.702Z,1.1
2023-02-04T11:58:21.236Z,0.6
2023-02-04T12:03:21.760Z,0.7
2023-02-04T12:08:22.177Z,1.0
2023-02-04T12:13:22.795Z,1.4
2023-02-04T12:18:23.128Z,1.7
2023-02-04T12:23:23.674Z,1.0
2023-02-04T12:28:24.142Z,1.6
2023-02-04T12:33:24.656Z,1.6
2023-02-04T12:38:25.014Z,1.7
2023-02-04T12:43:28.096Z,1.3
2023-02-04T12:48:26.266Z,1.2
2023-02-04T12:53:26.606Z,1.4
2023-02-04T12:58:27.022Z,1.6
2023-02-04T13:03:27.530Z,1.5
2023-02-04T13:08:27.881Z,1.6
2023-02-04T13:13:28.486Z,1.0
2023-02-04T13:18:28.846Z,1.0
2023-02-04T13:23:29.354Z,0.9
2023-02-04T13:28:29.815Z,0.9
2023-02-04T13:33:30.413Z,1.3
2023-02-04T13:38:30.700Z,1.3
2023-02-04T13:43:31.430Z,1.6
2023-02-04T13:48:31.525Z,1.4
2023-02-04T13:53:32.042Z,1.2
2023-02-04T13:58:32.561Z,1.3
2023-02-04T14:03:32.853Z,1.7
2023-02-04T14:08:33.343Z,1.2
2023-02-04T14:13:33.789Z,1.6
2023-02-04T14:18:34.136Z,1.3
2023-02-04T14:23:34.598Z,2.0
2023-02-04T14:28:35.060Z,2.3
2023-02-04T14:33:35.433Z,1.8
2023-02-04T14:38:35.800Z,2.2
2023-02-04T14:43:36.803Z,2.2
2023-02-04T14:48:36.639Z,1.5
2023-02-04T14:53:37.009Z,2.8
2023-02-04T14:58:37.553Z,2.0
2023-02-04T15:03:37.733Z,1.1
2023-02-04T15:08:38.227Z,1.9
2023-02-04T15:13:38.605Z,1.7
2023-02-04T15:18:38.969Z,2.2
2023-02-04T15:23:39.438Z,2.2
2023-02-04T15:28:39.945Z,1.8
2023-02-04T15:33:40.208Z,1.6
2023-02-04T15:38:40.592Z,1.9
2023-02-04T15:43:41.085Z,1.6
2023-02-04T15:48:41.532Z,2.7
2023-02-04T15:53:41.796Z,1.6
2023-02-04T15:58:42.396Z,2.3
2023-02-04T16:03:42.656Z,1.2
2023-02-04T16:08:43.121Z,2.4
2023-02-04T16:13:43.666Z,1.9
2023-02-04T16:18:43.944Z,1.7
2023-02-04T16:23:44.565Z,1.4
2023-02-04T16:28:44.794Z,0.8
2023-02-04T16:33:45.152Z,1.8
2023-02-04T16:38:45.565Z,1.7
2023-02-04T16:43:46.371Z,2.2
2023-02-04T16:48:46.346Z,1.8
2023-02-04T16:53:46.710Z,2.2
2023-02-04T16:58:47.159Z,1.7
2023-02-04T17:03:47.497Z,1.1
2023-02-04T17:08:47.884Z,1.8
2023-02-04T17:13:48.297Z,1.4
2023-02-04T17:18:48.605Z,2.1
2023-02-04T17:23:49.154Z,1.0
2023-02-04T17:28:49.519Z,1.2
2023-02-04T17:33:49.777Z,1.1
2023-02-04T17:38:50.048Z,1.5
2023-02-04T17:43:50.832Z,1.1
2023-02-04T17:48:50.775Z,1.3
2023-02-04T17:53:51.190Z,1.0
2023-02-04T17:58:51.613Z,1.8
2023-02-04T18:03:51.821Z,1.4
2023-02-04T18:08:52.135Z,0.9
2023-02-04T18:13:52.671Z,1.4
2023-02-04T18:18:52.806Z,0.7
2023-02-04T18:23:53.215Z,0.6
2023-02-04T18:28:53.582Z,0.6
2023-02-04T18:33:53.887Z,1.3
2023-02-04T18:38:54.203Z,0.8
2023-02-04T18:43:54.663Z,1.1
2023-02-04T18:48:54.903Z,1.1
2023-02-04T18:53:55.372Z,1.3
2023-02-04T18:58:55.708Z,1.0
2023-02-04T19:03:56.093Z,1.0
2023-02-04T19:08:56.433Z,0.9
2023-02-04T19:13:56.793Z,0.8
2023-02-04T19:18:57.047Z,1.0
2023-02-04T19:23:57.482Z,1.2
2023-02-04T19:28:57.855Z,1.1
2023-02-04T19:33:58.130Z,1.2
2023-02-04T19:38:58.766Z,1.4
2023-02-04T19:43:59.382Z,2.0
2023-02-04T19:48:59.178Z,1.3
2023-02-04T19:53:59.530Z,1.6
2023-02-04T19:58:59.906Z,2.1
2023-02-04T20:04:01.199Z,1.5
2023-02-04T20:09:00.583Z,1.8
2023-02-04T20:14:01.004Z,1.5
2023-02-04T20:19:01.364Z,2.4
2023-02-04T20:24:01.685Z,1.6
2023-02-04T20:29:02.143Z,1.9
2023-02-04T20:34:02.840Z,1.2
2023-02-04T20:39:02.850Z,1.7
2023-02-04T20:44:04.149Z,2.1
2023-02-04T20:49:03.585Z,0.9
2023-02-04T20:54:03.980Z,1.3
2023-02-04T20:59:04.435Z,1.5
2023-02-04T21:04:04.675Z,1.1
2023-02-04T21:09:05.065Z,1.5
2023-02-04T21:14:05.534Z,2.8
2023-02-04T21:19:05.805Z,1.7
2023-02-04T21:24:06.225Z,2.1
2023-02-04T21:29:06.576Z,1.3
2023-02-04T21:34:06.889Z,2.1
2023-02-04T21:39:07.208Z,1.5
2023-02-04T21:44:07.660Z,1.8
2023-02-04T21:49:07.909Z,1.3
2023-02-04T21:54:08.378Z,1.5
2023-02-04T21:59:08.688Z,1.4
2023-02-04T22:04:08.929Z,2.1
2023-02-04T22:09:09.294Z,1.9
2023-02-04T22:14:09.659Z,1.4
2023-02-04T22:19:09.970Z,1.3
2023-02-04T22:24:10.374Z,1.7
2023-02-04T22:29:10.754Z,1.6
2023-02-04T22:34:10.962Z,2.4
2023-02-04T22:39:11.340Z,1.7
2023-02-04T22:44:11.859Z,2.2
2023-02-04T22:49:12.059Z,1.7
2023-02-04T22:54:12.488Z,1.5
2023-02-04T22:59:12.859Z,1.6
2023-02-04T23:04:13.147Z,1.7
2023-02-04T23:09:13.570Z,1.9
2023-02-04T23:14:13.943Z,1.9
2023-02-04T23:19:14.206Z,1.3
2023-02-04T23:24:14.576Z,1.1
2023-02-04T23:29:14.990Z,1.3
2023-02-04T23:34:15.359Z,1.5
2023-02-04T23:39:15.648Z,1.3
2023-02-04T23:44:16.631Z,2.2
2023-02-04T23:49:16.391Z,1.8
2023-02-04T23:54:16.725Z,1.8
2023-02-04T23:59:17.115Z,1.7
